Flight Track Log - Related Links

Times and Time Zones

All times are in EDT time to prevent confusion due to time zone crossing. See the N1906H flight status page for this flight to view local times or setup timezone preferences in your user account.

Time Position Orientation Groundspeed Altitude Reporting Facility
EDT Latitude Longitude Course Direction KTS MPH feet Rate Location/Type
Tue 09:31:16 PM 42.9792 -91.2319 241° Southwest 150 173 2,100  Level Chicago Center
Tue 09:32:18 PM 42.9594 -91.2808 241° Southwest 149 171 2,000 121 Descending Chicago Center
Tue 09:33:45 PM 42.9328 -91.3486 242° Southwest 148 170 2,400 455 Climbing Chicago Center
Tue 09:34:43 PM 42.9158 -91.3894 240° Southwest 140 161 3,100 667 Climbing Minneapolis Center
Tue 09:36:09 PM 42.8889 -91.4411 235° Southwest 129 148 4,000 422 Climbing Minneapolis Center
Tue 09:36:51 PM 42.8653 -91.4669 219° Southwest 131 151 4,000 58 Level Chicago Center
Tue 09:37:53 PM 42.8333 -91.5025 219° Southwest 140 161 4,100 48 Climbing Chicago Center
Tue 09:38:55 PM 42.8017 -91.5386 220° Southwest 145 167 4,100 -48 Level Chicago Center
Tue 09:39:57 PM 42.7692 -91.5764 220° Southwest 149 171 4,000 -48 Descending Chicago Center
Tue 09:40:59 PM 42.7358 -91.6128 219° Southwest 149 171 4,000  Level Chicago Center
Tue 09:42:01 PM 42.7036 -91.6478 219° Southwest 148 170 4,000  Level Chicago Center
Tue 09:43:02 PM 42.6706 -91.6839 219° Southwest 150 173 4,000 49 Level Chicago Center
Tue 09:44:04 PM 42.6322 -91.7256 219° Southwest 150 173 4,100 48 Climbing Chicago Center
Tue 09:45:06 PM 42.6003 -91.7614 220° Southwest 149 171 4,100  Level Chicago Center
Tue 09:46:08 PM 42.5675 -91.7975 219° Southwest 151 174 4,100  Level Chicago Center
Tue 09:47:10 PM 42.5350 -91.8333 219° Southwest 151 174 4,100  Level Chicago Center
Tue 09:48:12 PM 42.5028 -91.8689 219° Southwest 151 174 4,100  Level Chicago Center
Tue 09:49:14 PM 42.4667 -91.9117 221° Southwest 148 170 4,100  Level Chicago Center
Tue 09:50:15 PM 42.4547 -91.9653 253° West 147 169 4,100  Level Chicago Center
Tue 09:51:17 PM 42.4422 -92.0192 253° West 150 173 4,100 -48 Level Chicago Center
Tue 09:52:19 PM 42.4292 -92.0731 252° West 151 174 4,000 -49 Descending Chicago Center
Tue 09:53:20 PM 42.4156 -92.1261 251° West 151 174 4,000  Level Chicago Center
Tue 09:54:22 PM 42.4017 -92.1792 250° West 151 174 4,000  Level Chicago Center
Tue 09:55:24 PM 42.3850 -92.2414 250° West 150 173 4,000  Level Chicago Center
Tue 09:56:25 PM 42.3708 -92.2931 250° West 148 170 4,000 49 Level Chicago Center
Tue 09:57:27 PM 42.3581 -92.3442 251° West 147 169 4,100 49 Climbing Chicago Center
Tue 09:58:28 PM 42.3433 -92.3936 248° West 146 168 4,100  Level Chicago Center
Tue 09:59:30 PM 42.3286 -92.4436 248° West 144 166 4,100 -49 Level Chicago Center
Tue 10:00:31 PM 42.3136 -92.4950 248° West 146 168 4,000 -49 Descending Chicago Center
Tue 10:01:33 PM 42.2950 -92.5567 248° West 148 170 4,000 48 Level Chicago Center
Tue 10:02:35 PM 42.2794 -92.6067 247° West 147 169 4,100 49 Climbing Chicago Center
Tue 10:03:36 PM 42.2642 -92.6569 248° West 146 168 4,100  Level Chicago Center
Tue 10:04:38 PM 42.2494 -92.7075 249° West 145 167 4,100 -49 Level Chicago Center
Tue 10:05:39 PM 42.2339 -92.7583 248° West 147 169 4,000 -49 Descending Chicago Center
Tue 10:06:40 PM 42.2172 -92.8097 246° West 148 170 4,000  Level Chicago Center
Tue 10:07:42 PM 42.2022 -92.8600 248° West 147 169 4,000  Level Chicago Center
Tue 10:08:43 PM 42.1833 -92.9197 247° West 147 169 4,000  Level Chicago Center
Tue 10:09:45 PM 42.1675 -92.9694 247° West 146 168 4,000 49 Level Chicago Center
Tue 10:10:46 PM 42.1503 -93.0181 244° Southwest 145 167 4,100  Climbing Chicago Center
Tue 10:11:47 PM 42.1275 -93.0644 237° Southwest 147 169 4,000 -49 Descending Chicago Center
Tue 10:12:49 PM 42.0997 -93.1081 229° Southwest 150 173 4,000 51 Level Chicago Center
Tue 10:13:44 PM 42.0836 -93.1503 243° Southwest 150 173 4,100 52 Climbing Minneapolis Center
Tue 10:14:45 PM 42.0589 -93.1947 233° Southwest 150 173 4,100  Level Minneapolis Center
Tue 10:15:46 PM 42.0325 -93.2422 233° Southwest 150 173 4,100  Level Minneapolis Center
Tue 10:16:46 PM 42.0078 -93.2867 233° Southwest 149 171 4,100  Level Minneapolis Center
Tue 10:17:47 PM 41.9831 -93.3314 233° Southwest 149 171 4,100  Level Minneapolis Center
Tue 10:18:47 PM 41.9561 -93.3731 229° Southwest 148 170 4,100  Level Minneapolis Center
Tue 10:19:48 PM 41.9314 -93.4175 233° Southwest 148 170 4,100  Level Minneapolis Center
Tue 10:20:49 PM 41.9064 -93.4619 233° Southwest 149 171 4,100  Level Minneapolis Center
Tue 10:21:49 PM 41.8775 -93.5067 229° Southwest 150 173 4,100  Level Minneapolis Center
Tue 10:22:50 PM 41.8506 -93.5511 231° Southwest 150 173 4,100  Level Minneapolis Center
Tue 10:23:51 PM 41.8258 -93.5953 233° Southwest 149 171 4,100 -43 Level Minneapolis Center
Tue 10:25:10 PM 41.7867 -93.6608 231° Southwest 148 170 4,000  Descending Minneapolis Center
Tue 10:25:58 PM 41.7742 -93.6839 234° Southwest 149 171 4,100 -56 Climbing Minneapolis Center
Tue 10:26:58 PM 41.7453 -93.7314 231° Southwest 150 173 3,900 -248 Descending Minneapolis Center
Tue 10:27:59 PM 41.7183 -93.7783 232° Southwest 155 178 3,600 -148 Descending Minneapolis Center
Tue 10:29:00 PM 41.7086 -93.8294 256° West 149 171 3,600  Level Minneapolis Center
Tue 10:30:00 PM 41.7069 -93.8825 268° West 147 169 3,600  Level Minneapolis Center
Tue 10:31:01 PM 41.7033 -93.9358 265° West 144 166 3,600 -49 Level Minneapolis Center
Tue 10:32:02 PM 41.7000 -93.9919 265° West 138 159 3,500 -149 Descending Minneapolis Center
Tue 10:33:02 PM 41.7142 -94.0269 298° West 121 139 3,300 -248 Descending Minneapolis Center
Tue 10:34:03 PM 41.7406 -94.0553 321° Northwest 120 138 3,000 -347 Descending Minneapolis Center
Tue 10:35:03 PM 41.7647 -94.0811 321° Northwest 118 136 2,600 -446 Descending Minneapolis Center
Tue 10:36:04 PM 41.7889 -94.1014 328° Northwest 102 117 2,100 -466 Descending Minneapolis Center
Tue 10:36:59 PM 41.8067 -94.1250 315° West 99 114 1,700 -436 Descending Minneapolis Center

Login

Don't have an account? Register now (free) for customized features, flight alerts, and more!